Time;durP1;ratioP1;P1;durP2;ratioP2;P2;SDS_P1;SDS_P2;PMS_P1;PMS_P2;Temp;Humidity;BMP_temperature;BMP_pressure;BME280_temperature;BME280_humidity;BME280_pressure;Samples;Min_cycle;Max_cycle;Signal;HPM_P1;HPM_P2
2022/11/14 00:00:26;;;;;;;20.88;16.25;;;6.40;99.90;;;;;;5097809;28;20113;-68
2022/11/14 00:03:12;;;;;;;19.58;15.65;;;6.50;99.90;;;;;;5096948;28;20172;-68
2022/11/14 00:05:56;;;;;;;21.17;15.10;;;6.50;99.90;;;;;;5098029;28;20047;-67
2022/11/14 00:08:40;;;;;;;19.65;15.90;;;6.40;99.90;;;;;;5096371;28;20067;-68
2022/11/14 00:11:24;;;;;;;21.30;15.57;;;6.30;99.90;;;;;;5096553;28;20055;-66
2022/11/14 00:14:10;;;;;;;21.05;15.32;;;6.20;99.90;;;;;;5097674;28;20402;-67
2022/11/14 00:16:54;;;;;;;18.63;14.90;;;6.10;99.90;;;;;;5097094;28;20101;-68
2022/11/14 00:19:38;;;;;;;18.70;14.15;;;6.00;99.90;;;;;;5097322;28;20413;-67
2022/11/14 00:22:22;;;;;;;19.88;15.05;;;6.20;99.90;;;;;;5097363;28;20181;-67
2022/11/14 00:25:07;;;;;;;21.70;14.43;;;6.10;99.90;;;;;;5082348;28;20451;-67
2022/11/14 00:27:51;;;;;;;21.75;15.93;;;6.10;99.90;;;;;;5096621;28;20437;-67
2022/11/14 00:30:35;;;;;;;20.83;15.80;;;6.10;99.90;;;;;;5096492;28;20089;-67
2022/11/14 00:33:20;;;;;;;19.55;15.13;;;6.10;99.90;;;;;;5096889;28;20437;-68
2022/11/14 00:36:04;;;;;;;19.63;15.45;;;6.10;99.90;;;;;;5096936;28;20043;-67
2022/11/14 00:38:53;;;;;;;20.38;14.98;;;6.20;99.90;;;;;;5096887;28;20323;-67
2022/11/14 00:41:37;;;;;;;20.50;15.60;;;6.10;99.90;;;;;;5096316;28;20430;-67
2022/11/14 00:44:21;;;;;;;17.58;13.93;;;6.00;99.90;;;;;;5096262;28;20094;-67
2022/11/14 00:47:05;;;;;;;19.30;14.15;;;5.90;99.90;;;;;;5096814;28;20066;-67
2022/11/14 00:49:49;;;;;;;18.40;14.45;;;5.90;99.90;;;;;;5096177;28;20113;-68
2022/11/14 00:52:33;;;;;;;19.08;15.27;;;5.90;99.90;;;;;;5097019;28;20050;-67
2022/11/14 00:55:17;;;;;;;21.25;15.50;;;5.90;99.90;;;;;;5096688;28;20113;-68
2022/11/14 00:58:02;;;;;;;21.70;15.60;;;5.80;99.90;;;;;;5096733;28;20442;-67
2022/11/14 01:00:46;;;;;;;23.23;16.45;;;5.80;99.90;;;;;;5097190;28;20418;-67
2022/11/14 01:03:31;;;;;;;21.40;15.65;;;5.80;99.90;;;;;;5100883;28;20066;-68
2022/11/14 01:06:16;;;;;;;22.08;15.93;;;5.80;99.90;;;;;;5100421;28;20067;-66
2022/11/14 01:09:01;;;;;;;23.95;17.00;;;5.70;99.90;;;;;;5100334;28;20323;-67
2022/11/14 01:11:45;;;;;;;22.15;16.38;;;5.80;99.90;;;;;;5100246;28;20108;-66
2022/11/14 01:14:29;;;;;;;24.73;17.40;;;5.70;99.90;;;;;;5100627;28;20047;-69
2022/11/14 01:17:13;;;;;;;23.20;17.58;;;5.70;99.90;;;;;;5100281;28;20050;-67
2022/11/14 01:19:58;;;;;;;21.60;16.98;;;5.70;99.90;;;;;;5100644;28;20051;-68
2022/11/14 01:22:42;;;;;;;24.15;17.17;;;5.70;99.90;;;;;;5100351;28;20051;-67
2022/11/14 01:25:27;;;;;;;26.75;18.27;;;5.70;99.90;;;;;;5100018;28;20071;-68
2022/11/14 01:28:17;;;;;;;23.42;17.25;;;5.60;99.90;;;;;;5100080;28;20334;-68
2022/11/14 01:31:16;;;;;;;24.48;17.23;;;5.60;99.90;;;;;;5100292;28;20054;-68
2022/11/14 01:34:00;;;;;;;25.80;17.52;;;5.60;99.90;;;;;;5100169;28;20043;-67
2022/11/14 01:36:44;;;;;;;22.75;16.52;;;5.70;99.90;;;;;;5100416;28;20054;-67
2022/11/14 01:39:28;;;;;;;20.95;17.00;;;5.70;99.90;;;;;;5099191;28;20391;-67
2022/11/14 01:42:13;;;;;;;21.90;17.08;;;5.60;99.90;;;;;;5100045;28;20055;-67
2022/11/14 01:44:58;;;;;;;23.40;17.08;;;5.60;99.90;;;;;;5100035;28;20108;-66
2022/11/14 01:47:42;;;;;;;22.60;16.80;;;5.50;99.90;;;;;;5084888;28;20457;-67
2022/11/14 01:50:27;;;;;;;21.98;17.48;;;5.60;99.90;;;;;;5084535;28;20410;-66
2022/11/14 01:53:11;;;;;;;24.10;17.45;;;5.60;99.90;;;;;;5098999;28;20131;-67
2022/11/14 01:56:00;;;;;;;22.70;17.10;;;5.50;99.90;;;;;;5084876;28;20106;-67
2022/11/14 01:58:49;;;;;;;24.60;17.98;;;5.50;99.90;;;;;;5099551;28;20059;-67
2022/11/14 02:01:37;;;;;;;23.25;16.95;;;5.50;99.90;;;;;;5099401;28;20051;-67
2022/11/14 02:04:28;;;;;;;20.80;16.45;;;5.50;99.90;;;;;;5100136;28;20109;-67
2022/11/14 02:07:14;;;;;;;21.92;16.02;;;5.40;99.90;;;;;;5099745;28;20456;-68
2022/11/14 02:10:00;;;;;;;22.67;16.15;;;5.30;99.90;;;;;;5098679;28;20050;-67
2022/11/14 02:12:46;;;;;;;21.05;16.58;;;5.30;99.90;;;;;;5098602;28;20087;-68
2022/11/14 02:15:32;;;;;;;22.00;17.27;;;5.30;99.90;;;;;;5099723;28;20139;-68
2022/11/14 02:18:16;;;;;;;22.38;16.83;;;5.20;99.90;;;;;;5099197;28;20046;-68
2022/11/14 02:21:00;;;;;;;22.20;16.90;;;5.20;99.90;;;;;;5099020;28;20047;-67
2022/11/14 02:23:44;;;;;;;23.50;16.90;;;5.20;99.90;;;;;;5099210;28;20457;-66
2022/11/14 02:26:28;;;;;;;22.83;17.02;;;5.20;99.90;;;;;;5098416;28;20202;-67
2022/11/14 02:29:13;;;;;;;19.48;16.23;;;5.20;99.90;;;;;;5098719;28;20055;-67
2022/11/14 02:31:57;;;;;;;23.13;16.98;;;5.20;99.90;;;;;;5084673;28;20135;-67
2022/11/14 02:34:41;;;;;;;22.08;16.85;;;5.30;99.90;;;;;;5099506;28;20046;-67
2022/11/14 02:37:25;;;;;;;23.13;16.25;;;5.30;99.90;;;;;;5099172;28;20050;-67
2022/11/14 02:40:09;;;;;;;23.55;16.73;;;5.30;99.90;;;;;;5099246;28;20433;-67
2022/11/14 02:42:54;;;;;;;24.70;17.52;;;5.20;99.90;;;;;;5097910;28;20128;-67
2022/11/14 02:45:38;;;;;;;23.52;17.08;;;5.20;99.90;;;;;;5099393;28;20100;-67
2022/11/14 02:48:23;;;;;;;21.27;16.98;;;5.20;99.90;;;;;;5097903;28;20054;-67
2022/11/14 02:51:07;;;;;;;24.15;17.33;;;5.20;99.90;;;;;;5083900;28;20051;-67
2022/11/14 02:53:52;;;;;;;21.17;16.25;;;5.10;99.90;;;;;;5097744;28;20063;-67
2022/11/14 02:56:36;;;;;;;21.50;15.43;;;5.00;99.90;;;;;;5098334;28;20113;-67
2022/11/14 02:59:21;;;;;;;23.08;16.45;;;4.90;99.90;;;;;;5098164;28;20098;-67
2022/11/14 03:02:05;;;;;;;20.00;15.48;;;4.80;99.90;;;;;;5098427;28;20453;-67
2022/11/14 03:04:49;;;;;;;22.75;17.10;;;4.80;99.90;;;;;;5097699;28;20410;-68
2022/11/14 03:07:33;;;;;;;20.67;16.33;;;4.90;99.90;;;;;;5098080;28;20051;-66
2022/11/14 03:10:18;;;;;;;22.02;16.70;;;4.90;99.90;;;;;;5097855;28;20051;-67
2022/11/14 03:13:02;;;;;;;22.00;16.17;;;4.90;99.90;;;;;;5098012;28;20090;-67
2022/11/14 03:15:46;;;;;;;21.10;15.77;;;4.80;99.90;;;;;;5098322;28;20070;-66
2022/11/14 03:18:30;;;;;;;22.00;16.95;;;4.80;99.90;;;;;;5097219;28;20093;-67
2022/11/14 03:21:18;;;;;;;21.27;16.95;;;4.90;99.90;;;;;;5097853;28;20055;-66
2022/11/14 03:24:02;;;;;;;24.95;16.88;;;4.90;99.90;;;;;;5097561;28;20410;-67
2022/11/14 03:26:47;;;;;;;23.08;16.67;;;4.90;99.90;;;;;;5082587;28;20426;-68
2022/11/14 03:29:31;;;;;;;23.90;16.92;;;4.80;99.90;;;;;;5097545;28;20144;-66
2022/11/14 03:32:15;;;;;;;21.10;16.17;;;4.70;99.90;;;;;;5097739;28;20089;-66
2022/11/14 03:35:00;;;;;;;21.05;15.85;;;4.80;99.90;;;;;;5097612;28;20473;-67
2022/11/14 03:37:44;;;;;;;21.33;15.98;;;4.80;99.90;;;;;;5097046;28;20422;-66
2022/11/14 03:40:29;;;;;;;19.95;16.02;;;4.70;99.90;;;;;;5096988;28;20113;-66
2022/11/14 03:43:13;;;;;;;22.00;16.40;;;4.60;99.90;;;;;;5097583;28;20051;-66
2022/11/14 03:45:59;;;;;;;20.77;15.93;;;4.60;99.90;;;;;;5097480;28;20051;-68
2022/11/14 03:48:43;;;;;;;22.83;16.95;;;4.50;99.90;;;;;;5097353;28;20043;-66
2022/11/14 03:51:27;;;;;;;22.48;16.65;;;4.60;99.90;;;;;;5097651;28;20179;-67
2022/11/14 03:54:12;;;;;;;20.63;16.25;;;4.60;99.90;;;;;;5097431;28;20046;-67
2022/11/14 03:56:56;;;;;;;19.45;15.77;;;4.60;99.90;;;;;;5097281;28;20126;-67
2022/11/14 03:59:41;;;;;;;21.25;16.45;;;4.50;99.90;;;;;;5082452;28;20078;-67
2022/11/14 04:02:25;;;;;;;22.75;16.27;;;4.50;99.90;;;;;;5097205;28;20306;-67
2022/11/14 04:05:10;;;;;;;21.95;15.65;;;4.60;99.90;;;;;;5096655;28;20393;-67
2022/11/14 04:07:54;;;;;;;23.52;16.13;;;4.60;99.90;;;;;;5097256;28;20196;-68
2022/11/14 04:10:40;;;;;;;20.15;15.88;;;4.60;99.90;;;;;;5082790;28;20075;-67
2022/11/14 04:13:24;;;;;;;21.55;15.95;;;4.50;99.90;;;;;;5096650;28;20104;-67
2022/11/14 04:16:09;;;;;;;24.00;16.23;;;4.40;99.90;;;;;;5096862;28;20063;-67
2022/11/14 04:18:53;;;;;;;22.08;16.55;;;4.40;99.90;;;;;;5096638;28;20058;-67
2022/11/14 04:21:37;;;;;;;22.00;16.00;;;4.40;99.90;;;;;;5096775;28;20109;-67
2022/11/14 04:24:22;;;;;;;19.25;15.60;;;4.30;99.90;;;;;;5096401;28;20131;-67
2022/11/14 04:27:06;;;;;;;20.45;16.00;;;4.30;99.90;;;;;;5097267;28;20121;-67
2022/11/14 04:29:50;;;;;;;21.55;16.05;;;4.30;99.90;;;;;;5096848;28;20062;-67
2022/11/14 04:32:34;;;;;;;21.08;15.82;;;4.40;99.90;;;;;;5096926;28;20097;-67
2022/11/14 04:35:19;;;;;;;22.08;15.80;;;4.30;99.90;;;;;;5096531;28;20139;-67
2022/11/14 04:38:03;;;;;;;20.10;15.95;;;4.30;99.90;;;;;;5100795;28;20316;-67
2022/11/14 04:40:49;;;;;;;21.73;16.40;;;4.40;99.90;;;;;;5101236;28;20046;-67
2022/11/14 04:43:33;;;;;;;21.02;16.27;;;4.40;99.90;;;;;;5101228;28;20112;-68
2022/11/14 04:46:18;;;;;;;22.58;16.92;;;4.50;99.90;;;;;;5100838;28;20457;-68
2022/11/14 04:49:03;;;;;;;21.25;16.67;;;4.50;99.90;;;;;;5100021;28;20062;-68
2022/11/14 04:51:47;;;;;;;23.63;16.63;;;4.60;99.90;;;;;;5100104;28;20046;-68
2022/11/14 04:54:31;;;;;;;22.45;16.02;;;4.50;99.90;;;;;;5100751;28;20101;-67
2022/11/14 04:57:16;;;;;;;22.85;16.70;;;4.50;99.90;;;;;;5100034;28;20478;-67
2022/11/14 05:00:01;;;;;;;21.70;16.27;;;4.60;99.90;;;;;;5085713;28;20088;-67
2022/11/14 05:02:45;;;;;;;22.40;15.88;;;4.60;99.90;;;;;;5101026;28;20059;-66
2022/11/14 05:05:30;;;;;;;21.55;15.85;;;4.50;99.90;;;;;;5100501;28;20323;-67
2022/11/14 05:08:15;;;;;;;22.95;16.58;;;4.50;99.90;;;;;;5100754;28;20058;-67
2022/11/14 05:11:00;;;;;;;21.70;15.90;;;4.50;99.90;;;;;;5099812;28;20124;-67
2022/11/14 05:13:45;;;;;;;22.92;15.55;;;4.50;99.90;;;;;;5099775;28;20127;-68
2022/11/14 05:16:29;;;;;;;20.92;16.48;;;4.50;99.90;;;;;;5100906;28;20291;-68
2022/11/14 05:19:13;;;;;;;21.15;16.02;;;4.60;99.90;;;;;;5099643;28;20054;-68
2022/11/14 05:21:58;;;;;;;22.70;15.57;;;4.50;99.90;;;;;;5099867;28;20051;-68
2022/11/14 05:24:42;;;;;;;25.08;16.55;;;4.50;99.90;;;;;;5099525;28;20070;-68
2022/11/14 05:27:28;;;;;;;22.77;16.00;;;4.50;99.90;;;;;;5099934;28;20055;-68
2022/11/14 05:30:12;;;;;;;21.92;16.60;;;4.40;99.90;;;;;;5100042;28;20046;-69
2022/11/14 05:32:57;;;;;;;22.27;16.17;;;4.40;99.90;;;;;;5099609;28;20116;-67
2022/11/14 05:35:41;;;;;;;22.95;16.52;;;4.50;99.90;;;;;;5099335;28;20051;-68
2022/11/14 05:38:25;;;;;;;23.23;15.48;;;4.50;99.90;;;;;;5085217;28;20047;-67
2022/11/14 05:41:15;;;;;;;22.17;15.27;;;4.40;99.90;;;;;;5100093;28;20325;-67
2022/11/14 05:44:00;;;;;;;22.20;15.25;;;4.40;99.90;;;;;;5099997;28;20109;-67
2022/11/14 05:46:44;;;;;;;22.23;16.38;;;4.30;99.90;;;;;;5100354;28;20327;-67
2022/11/14 05:49:28;;;;;;;19.52;15.20;;;4.30;99.90;;;;;;5098633;28;20054;-68
2022/11/14 05:52:12;;;;;;;24.55;17.30;;;4.30;99.90;;;;;;5098980;28;20097;-68
2022/11/14 05:54:57;;;;;;;25.70;17.63;;;4.20;99.90;;;;;;5100166;28;20040;-67
2022/11/14 05:57:41;;;;;;;29.45;16.98;;;4.30;99.90;;;;;;5100230;28;20460;-68
2022/11/14 06:00:26;;;;;;;19.60;15.80;;;4.20;99.90;;;;;;5098759;28;20104;-68
2022/11/14 06:03:13;;;;;;;23.13;16.45;;;4.10;99.90;;;;;;5099057;28;20058;-68
2022/11/14 06:06:03;;;;;;;21.25;15.63;;;4.10;99.90;;;;;;5099892;28;20054;-68
2022/11/14 06:08:47;;;;;;;22.55;16.17;;;4.10;99.90;;;;;;5099424;28;20139;-68
2022/11/14 06:11:32;;;;;;;20.25;15.60;;;4.10;99.90;;;;;;5099512;28;20067;-68
2022/11/14 06:14:17;;;;;;;21.70;16.60;;;4.20;99.90;;;;;;5099615;28;20043;-68
2022/11/14 06:17:01;;;;;;;25.40;15.75;;;4.20;99.90;;;;;;5098815;28;20051;-68
2022/11/14 06:19:46;;;;;;;23.98;16.25;;;4.10;99.90;;;;;;5099151;28;20051;-69
2022/11/14 06:22:30;;;;;;;20.65;15.32;;;4.10;99.90;;;;;;5099132;28;20051;-69
2022/11/14 06:25:15;;;;;;;23.85;16.55;;;4.10;99.90;;;;;;5084448;28;20055;-67
2022/11/14 06:27:59;;;;;;;21.50;15.68;;;4.10;99.90;;;;;;5099292;28;20047;-67
2022/11/14 06:30:44;;;;;;;22.67;15.63;;;4.00;99.90;;;;;;5098849;28;20145;-67
2022/11/14 06:33:32;;;;;;;22.70;15.77;;;4.00;99.90;;;;;;5098498;28;20410;-69
2022/11/14 06:36:17;;;;;;;23.38;15.57;;;4.20;99.90;;;;;;5099820;28;20403;-68
2022/11/14 06:39:01;;;;;;;22.25;16.27;;;4.20;99.90;;;;;;5098351;28;20473;-67
2022/11/14 06:41:45;;;;;;;20.35;14.82;;;4.10;99.90;;;;;;5099136;28;20059;-68
2022/11/14 06:44:30;;;;;;;20.67;15.15;;;4.00;99.90;;;;;;5097958;28;20051;-68
2022/11/14 06:47:14;;;;;;;21.40;15.68;;;4.00;99.90;;;;;;5098537;28;20086;-67
2022/11/14 06:49:58;;;;;;;21.17;15.55;;;4.00;99.90;;;;;;5098285;28;20144;-68
2022/11/14 06:52:42;;;;;;;22.83;15.57;;;3.90;99.90;;;;;;5098272;28;20043;-67
2022/11/14 06:55:27;;;;;;;24.65;16.52;;;4.00;99.90;;;;;;5097655;28;20410;-68
2022/11/14 06:58:11;;;;;;;22.95;16.02;;;4.00;99.90;;;;;;5098217;28;20059;-69
2022/11/14 07:01:01;;;;;;;22.50;15.95;;;4.00;99.90;;;;;;5069298;28;20062;-66
2022/11/14 07:03:46;;;;;;;20.25;15.70;;;3.90;99.90;;;;;;5098244;28;20099;-67
2022/11/14 07:06:30;;;;;;;22.80;15.75;;;4.00;99.90;;;;;;5097438;28;20051;-70
2022/11/14 07:09:15;;;;;;;23.58;17.70;;;3.90;99.90;;;;;;5098252;28;20139;-69
2022/11/14 07:11:59;;;;;;;23.08;17.50;;;3.90;99.90;;;;;;5097976;28;20093;-67
2022/11/14 07:14:44;;;;;;;23.15;17.48;;;3.80;99.90;;;;;;5097601;28;20312;-68
2022/11/14 07:17:28;;;;;;;23.58;17.50;;;3.90;99.90;;;;;;5097308;28;20051;-68
2022/11/14 07:20:13;;;;;;;22.88;17.05;;;4.00;99.90;;;;;;5098187;28;20112;-67
2022/11/14 07:22:57;;;;;;;23.70;16.65;;;4.00;99.90;;;;;;5097981;28;20464;-66
2022/11/14 07:25:42;;;;;;;24.15;17.17;;;4.00;99.90;;;;;;5098327;28;20410;-66
2022/11/14 07:28:27;;;;;;;21.52;16.08;;;4.10;99.90;;;;;;5082736;28;20105;-66
2022/11/14 07:31:14;;;;;;;26.00;16.55;;;4.30;99.90;;;;;;5098540;28;20335;-65
2022/11/14 07:33:58;;;;;;;22.65;16.38;;;5.90;99.90;;;;;;5097089;28;20047;-66
2022/11/14 07:36:42;;;;;;;18.90;15.43;;;6.70;99.90;;;;;;5097896;28;20303;-67
2022/11/14 07:39:26;;;;;;;20.70;14.98;;;5.90;99.90;;;;;;5096903;28;20104;-67
2022/11/14 07:42:11;;;;;;;19.77;15.02;;;5.50;99.90;;;;;;5096889;28;20436;-67
2022/11/14 07:44:55;;;;;;;22.33;16.05;;;5.20;99.90;;;;;;5097485;28;20112;-68
2022/11/14 07:47:39;;;;;;;20.75;14.93;;;4.90;99.90;;;;;;5098039;28;20150;-64
2022/11/14 07:50:25;;;;;;;23.05;17.58;;;5.20;99.90;;;;;;5097197;28;20113;-67
2022/11/14 07:53:09;;;;;;;26.30;17.65;;;5.30;99.90;;;;;;5097679;28;20098;-67
2022/11/14 07:55:54;;;;;;;23.58;16.73;;;5.10;99.90;;;;;;5097380;28;20113;-68
2022/11/14 07:58:40;;;;;;;27.73;18.10;;;5.00;99.90;;;;;;5096851;28;20051;-68
2022/11/14 08:01:24;;;;;;;24.08;17.50;;;5.10;99.90;;;;;;5097301;28;20086;-68
2022/11/14 08:04:09;;;;;;;25.70;16.58;;;5.00;99.90;;;;;;5097512;28;20051;-68
2022/11/14 08:06:53;;;;;;;22.88;16.88;;;5.00;99.90;;;;;;5097452;28;20040;-68
2022/11/14 08:09:37;;;;;;;24.73;17.20;;;5.10;99.90;;;;;;5096275;28;20082;-66
2022/11/14 08:12:22;;;;;;;24.77;17.48;;;5.00;99.90;;;;;;5096401;28;20083;-68
2022/11/14 08:15:07;;;;;;;23.83;17.10;;;5.00;99.90;;;;;;5096479;28;20369;-68
2022/11/14 08:17:52;;;;;;;23.45;16.92;;;5.00;99.90;;;;;;5096675;28;20335;-65
2022/11/14 08:20:36;;;;;;;26.65;18.08;;;5.10;99.90;;;;;;5097110;28;20051;-67
2022/11/14 08:23:21;;;;;;;27.58;19.75;;;5.10;99.90;;;;;;5096680;28;20303;-68
2022/11/14 08:26:05;;;;;;;30.20;20.38;;;5.20;99.90;;;;;;5097065;28;20086;-68
2022/11/14 08:28:53;;;;;;;25.42;18.92;;;5.40;99.90;;;;;;5096248;28;20368;-68
2022/11/14 08:31:38;;;;;;;29.95;20.45;;;5.40;99.90;;;;;;5097019;28;20043;-68
2022/11/14 08:34:23;;;;;;;30.15;19.63;;;5.50;99.90;;;;;;5097234;28;20054;-68
2022/11/14 08:37:07;;;;;;;26.20;18.40;;;5.60;99.90;;;;;;5096101;28;20047;-68
2022/11/14 08:39:52;;;;;;;26.60;18.23;;;5.70;99.90;;;;;;5096268;28;20051;-68
2022/11/14 08:42:37;;;;;;;22.67;15.52;;;5.70;99.90;;;;;;5096721;28;20085;-63
2022/11/14 08:45:21;;;;;;;27.33;17.77;;;5.90;99.90;;;;;;5096855;28;20047;-64
2022/11/14 08:48:05;;;;;;;26.63;18.05;;;7.90;99.90;;;;;;5082403;28;20057;-67
2022/11/14 08:50:50;;;;;;;25.33;17.30;;;7.50;99.90;;;;;;5096141;28;20093;-67
2022/11/14 08:53:34;;;;;;;23.77;17.15;;;7.20;99.90;;;;;;5097065;28;20043;-67
2022/11/14 08:56:18;;;;;;;25.27;16.13;;;7.00;99.90;;;;;;5096727;28;20078;-64
2022/11/14 08:59:03;;;;;;;23.33;15.82;;;6.90;99.90;;;;;;5096045;28;20160;-64
2022/11/14 09:01:48;;;;;;;27.02;16.38;;;6.90;99.90;;;;;;5097028;28;20194;-63
2022/11/14 09:04:32;;;;;;;22.80;15.32;;;6.80;99.90;;;;;;5082078;28;20047;-64
2022/11/14 09:07:17;;;;;;;19.65;14.68;;;6.80;99.90;;;;;;5096238;28;20135;-64
2022/11/14 09:10:02;;;;;;;23.98;14.82;;;6.90;99.90;;;;;;5096577;28;20136;-64
2022/11/14 09:12:46;;;;;;;24.13;14.75;;;7.00;99.90;;;;;;5096783;28;20043;-65
2022/11/14 09:15:32;;;;;;;23.38;14.77;;;7.10;99.90;;;;;;5096880;28;20139;-66
2022/11/14 09:18:16;;;;;;;22.15;14.15;;;7.10;99.90;;;;;;5096165;28;20452;-65
2022/11/14 09:21:06;;;;;;;21.38;13.07;;;7.20;99.90;;;;;;5095957;28;20055;-66
2022/11/14 09:23:51;;;;;;;18.90;12.57;;;7.20;99.90;;;;;;5098219;28;20047;-65
2022/11/14 09:26:35;;;;;;;20.17;13.35;;;7.30;99.90;;;;;;5100023;28;20460;-65
2022/11/14 09:29:19;;;;;;;17.02;12.32;;;7.40;99.90;;;;;;5099397;28;20054;-64
2022/11/14 09:32:04;;;;;;;19.77;13.38;;;7.60;99.90;;;;;;5100544;28;20109;-65
2022/11/14 09:34:48;;;;;;;23.17;13.45;;;7.60;99.90;;;;;;5099947;28;20043;-65
2022/11/14 09:37:32;;;;;;;18.38;12.38;;;7.70;99.90;;;;;;5099979;28;20090;-64
2022/11/14 09:40:16;;;;;;;17.23;11.82;;;7.90;99.90;;;;;;5099844;28;20051;-65
2022/11/14 09:43:25;;;;;;;18.38;11.27;;;8.70;99.90;;;;;;5084861;28;20055;-64
2022/11/14 09:46:24;;;;;;;14.32;10.68;;;9.70;99.90;;;;;;5099725;28;20089;-65
2022/11/14 09:49:17;;;;;;;16.23;11.38;;;9.30;99.90;;;;;;5100007;28;20089;-65
2022/11/14 09:52:43;;;;;;;23.30;10.93;;;9.50;99.90;;;;;;5099829;28;20096;-64
2022/11/14 09:55:33;;;;;;;13.85;10.98;;;9.30;99.90;;;;;;5100152;28;20046;-64
2022/11/14 09:58:19;;;;;;;16.02;11.02;;;9.20;99.90;;;;;;5099623;28;20112;-64
2022/11/14 10:01:10;;;;;;;16.05;10.55;;;9.60;99.90;;;;;;5099535;28;20055;-64
2022/11/14 10:04:14;;;;;;;15.85;10.68;;;10.00;99.90;;;;;;5099305;28;20410;-64
2022/11/14 10:07:16;;;;;;;;;;;9.70;99.90;;;;;;5099958;28;20116;-64
2022/11/14 10:10:09;;;;;;;16.60;10.40;;;9.90;99.90;;;;;;5099218;28;19923;-63
2022/11/14 10:12:54;;;;;;;15.77;10.43;;;10.30;99.90;;;;;;5099366;28;20051;-64
2022/11/14 10:15:44;;;;;;;14.40;10.50;;;10.40;99.90;;;;;;5099132;28;20043;-65
2022/11/14 10:18:53;;;;;;;15.05;10.30;;;10.60;99.90;;;;;;5098732;28;20407;-64
2022/11/14 10:21:59;;;;;;;22.52;9.88;;;11.20;99.90;;;;;;5099479;28;20058;-63
2022/11/14 10:25:17;;;;;;;15.10;9.77;;;11.80;99.90;;;;;;5098610;28;20047;-63
2022/11/14 10:28:17;;;;;;;14.98;9.75;;;11.70;99.90;;;;;;5098433;28;20100;-64
2022/11/14 10:31:23;;;;;;;15.05;10.02;;;11.50;99.90;;;;;;5099071;28;20042;-65
2022/11/14 10:34:19;;;;;;;14.98;9.43;;;12.30;99.90;;;;;;5098500;28;20085;-65
2022/11/14 10:37:22;;;;;;;14.18;10.10;;;12.50;99.90;;;;;;5099428;28;20088;-64
2022/11/14 10:40:17;;;;;;;13.55;9.85;;;12.40;99.90;;;;;;5098575;28;20308;-63
2022/11/14 10:43:20;;;;;;;13.77;10.10;;;12.60;99.90;;;;;;5098405;28;20051;-64
2022/11/14 10:46:16;;;;;;;14.15;10.20;;;13.20;99.90;;;;;;5099342;28;20130;-63
2022/11/14 10:49:01;;;;;;;15.07;9.52;;;13.10;99.90;;;;;;5098615;28;20038;-63
2022/11/14 10:51:51;;;;;;;13.18;9.70;;;14.10;99.90;;;;;;5097915;28;20077;-64
2022/11/14 10:54:38;;;;;;;14.95;9.70;;;14.60;99.90;;;;;;5097791;28;20039;-64
2022/11/14 10:57:22;;;;;;;18.80;10.70;;;14.50;99.90;;;;;;5099013;28;20038;-63
2022/11/14 11:00:13;;;;;;;12.38;10.27;;;14.70;99.90;;;;;;5097482;28;20120;-63
2022/11/14 11:02:58;;;;;;;13.00;10.32;;;15.00;99.90;;;;;;5098752;28;20046;-63
2022/11/14 11:05:58;;;;;;;16.00;10.90;;;14.40;99.90;;;;;;5098145;28;20059;-64
2022/11/14 11:12:00;;;;;;;16.00;12.00;;;13.50;99.90;;;;;;5098277;28;20051;-64
2022/11/14 11:14:46;;;;;;;18.98;12.60;;;13.20;99.90;;;;;;5098393;28;20055;-63
2022/11/14 11:17:30;;;;;;;18.10;13.05;;;13.60;99.90;;;;;;5098353;28;20085;-64
2022/11/14 11:20:36;;;;;;;18.02;12.63;;;13.60;99.90;;;;;;5097408;28;20047;-63
2022/11/14 11:23:25;;;;;;;18.95;13.57;;;13.60;99.90;;;;;;5097832;28;20059;-63
2022/11/14 11:26:17;;;;;;;19.17;13.30;;;13.20;99.90;;;;;;5098401;28;20047;-64
2022/11/14 11:29:07;;;;;;;19.33;13.67;;;13.00;99.90;;;;;;5097619;28;20051;-64
2022/11/14 11:31:54;;;;;;;21.58;15.48;;;12.60;99.90;;;;;;5098614;28;20043;-63
2022/11/14 11:34:39;;;;;;;22.92;13.75;;;12.50;99.90;;;;;;5097701;28;20039;-63
2022/11/14 11:37:31;;;;;;;20.10;13.27;;;12.10;99.90;;;;;;5082885;28;20083;-64
2022/11/14 11:40:20;;;;;;;20.75;13.70;;;12.20;99.90;;;;;;5097656;28;20127;-63
2022/11/14 11:43:36;;;;;;;18.95;12.57;;;12.40;99.90;;;;;;5097487;28;20039;-63
2022/11/14 11:46:39;;;;;;;21.13;11.23;;;12.70;99.90;;;;;;5096739;28;20038;-64
2022/11/14 11:49:33;;;;;;;17.33;11.10;;;12.50;99.90;;;;;;5097818;28;20372;-63
2022/11/14 11:52:40;;;;;;;14.43;10.63;;;12.10;99.90;;;;;;5097796;28;20043;-64
2022/11/14 11:55:29;;;;;;;14.05;10.80;;;12.40;99.90;;;;;;5096917;28;20136;-64
2022/11/14 11:58:24;;;;;;;15.00;10.75;;;12.40;99.90;;;;;;5096585;28;20039;-64
2022/11/14 12:01:13;;;;;;;14.43;10.75;;;12.40;99.90;;;;;;5097259;28;20050;-64
2022/11/14 12:03:59;;;;;;;15.25;10.13;;;12.30;99.90;;;;;;5082809;28;20328;-64
2022/11/14 12:07:14;;;;;;;16.88;10.43;;;12.00;99.90;;;;;;5097169;28;20101;-63
2022/11/14 12:10:06;;;;;;;16.85;10.52;;;11.90;99.90;;;;;;5110806;28;20456;-63
2022/11/14 12:13:06;;;;;;;16.80;10.97;;;12.00;99.90;;;;;;5097519;28;20035;-64
2022/11/14 12:16:10;;;;;;;14.07;10.15;;;12.30;99.90;;;;;;5097027;28;20490;-63
2022/11/14 12:19:31;;;;;;;12.80;10.70;;;12.20;99.90;;;;;;5097027;28;20038;-64
2022/11/14 12:22:35;;;;;;;17.10;10.70;;;12.00;99.90;;;;;;5096473;28;20109;-63
2022/11/14 12:25:28;;;;;;;15.50;10.60;;;12.10;99.90;;;;;;5096580;28;20032;-64
2022/11/14 12:28:34;;;;;;;16.40;11.13;;;12.00;99.90;;;;;;5097149;28;20086;-64
2022/11/14 12:31:19;;;;;;;15.50;10.73;;;11.90;99.90;;;;;;5096900;28;20054;-65
2022/11/14 12:34:14;;;;;;;13.77;10.35;;;11.80;99.90;;;;;;5096827;28;20366;-65
2022/11/14 12:36:59;;;;;;;17.02;11.25;;;11.90;99.90;;;;;;5097131;28;20426;-64
2022/11/14 12:40:02;;;;;;;15.80;10.43;;;11.90;99.90;;;;;;5096546;28;20312;-63
2022/11/14 12:42:47;;;;;;;19.45;11.23;;;11.80;99.90;;;;;;5096530;28;20047;-64
2022/11/14 12:45:40;;;;;;;16.15;11.18;;;11.90;99.90;;;;;;5096330;28;20051;-63
2022/11/14 12:48:24;;;;;;;15.52;11.73;;;11.80;99.90;;;;;;5096819;28;20113;-64
2022/11/14 12:51:24;;;;;;;15.73;11.35;;;11.70;99.90;;;;;;5097403;28;20038;-64
2022/11/14 12:54:43;;;;;;;14.68;10.73;;;11.60;99.90;;;;;;5096716;28;20357;-65
2022/11/14 12:57:57;;;;;;;14.02;11.48;;;11.70;99.90;;;;;;5098307;28;20113;-64
2022/11/14 13:00:44;;;;;;;16.55;11.40;;;11.50;99.90;;;;;;5101001;28;20299;-63
2022/11/14 13:03:39;;;;;;;17.08;11.50;;;11.60;99.90;;;;;;5100597;28;20078;-63
2022/11/14 13:06:30;;;;;;;16.48;11.63;;;11.60;99.90;;;;;;5101158;28;20043;-64
2022/11/14 13:09:57;;;;;;;20.27;12.82;;;11.40;99.90;;;;;;5100713;28;20079;-65
2022/11/14 13:22:13;;;;;;;18.40;11.90;;;11.30;99.90;;;;;;5100255;28;20104;-63
2022/11/14 13:24:57;;;;;;;16.00;11.70;;;11.10;99.90;;;;;;5100260;28;20144;-64
2022/11/14 13:27:42;;;;;;;15.43;11.63;;;11.40;99.90;;;;;;5100343;28;20112;-64
2022/11/14 13:31:05;;;;;;;17.17;11.68;;;11.50;99.90;;;;;;5099266;28;20452;-65
2022/11/14 13:34:00;;;;;;;15.07;11.95;;;11.20;99.90;;;;;;5113882;28;20039;-63
2022/11/14 13:36:58;;;;;;;14.65;11.40;;;11.10;99.90;;;;;;5100544;28;20047;-64
2022/11/14 13:39:48;;;;;;;14.13;10.60;;;10.90;99.90;;;;;;5099992;28;20050;-64
2022/11/14 13:43:03;;;;;;;14.32;11.52;;;10.80;99.90;;;;;;5099874;28;20134;-64
2022/11/14 13:46:15;;;;;;;14.73;10.60;;;10.80;99.90;;;;;;5099431;28;20104;-64
2022/11/14 13:49:33;;;;;;;14.38;11.55;;;10.80;99.90;;;;;;5099597;28;20086;-64
2022/11/14 13:52:18;;;;;;;16.52;11.68;;;10.70;99.90;;;;;;5100284;28;20162;-65
2022/11/14 13:55:03;;;;;;;19.55;13.27;;;10.40;99.90;;;;;;5098834;28;20319;-65
2022/11/14 13:58:06;;;;;;;19.23;14.75;;;10.40;99.90;;;;;;5098767;28;20124;-63
2022/11/14 14:01:11;;;;;;;20.38;15.20;;;10.40;99.90;;;;;;5099585;28;20090;-63
2022/11/14 14:04:33;;;;;;;22.50;16.13;;;10.00;99.90;;;;;;5099255;28;20501;-65
2022/11/14 14:07:29;;;;;;;19.33;15.85;;;9.40;99.90;;;;;;5099662;28;20043;-65
2022/11/14 14:10:35;;;;;;;23.45;17.48;;;9.50;99.90;;;;;;5097689;28;20093;-65
2022/11/14 14:13:32;;;;;;;23.10;17.50;;;9.40;99.90;;;;;;5099722;28;20397;-66
2022/11/14 14:16:30;;;;;;;26.60;18.02;;;9.30;99.90;;;;;;5099986;28;20291;-65
2022/11/14 14:19:33;;;;;;;24.13;17.85;;;9.10;99.90;;;;;;5099153;28;20046;-64
2022/11/14 14:22:17;;;;;;;;;;;9.30;99.90;;;;;;5099861;28;20085;-65
2022/11/14 14:25:11;;;;;;;24.20;18.70;;;8.80;99.90;;;;;;5098896;28;20237;-65
2022/11/14 14:28:36;;;;;;;28.17;19.95;;;8.70;99.90;;;;;;5099118;28;20046;-63
2022/11/14 14:31:23;;;;;;;27.40;19.90;;;8.30;99.90;;;;;;5099253;28;20093;-65
2022/11/14 14:34:25;;;;;;;29.23;21.05;;;8.00;99.90;;;;;;5098505;28;20426;-65
2022/11/14 14:37:25;;;;;;;28.13;21.08;;;8.10;99.90;;;;;;5099184;28;20111;-66